createdAt,value
2023-01-18T00:00:10.364Z,1.65
2023-01-18T00:03:19.479Z,1.63
2023-01-18T00:06:11.311Z,1.67
2023-01-18T00:09:01.003Z,1.68
2023-01-18T00:11:49.001Z,1.70
2023-01-18T00:14:35.378Z,1.70
2023-01-18T00:17:21.872Z,1.71
2023-01-18T00:20:11.731Z,1.74
2023-01-18T00:23:00.943Z,1.73
2023-01-18T00:25:47.639Z,1.71
2023-01-18T00:28:34.648Z,1.72
2023-01-18T00:31:21.392Z,1.73
2023-01-18T00:34:08.267Z,1.75
2023-01-18T00:36:55.007Z,1.77
2023-01-18T00:39:41.998Z,1.81
2023-01-18T00:42:47.389Z,1.82
2023-01-18T00:45:34.217Z,1.79
2023-01-18T00:48:20.990Z,1.79
2023-01-18T00:51:09.872Z,1.80
2023-01-18T00:53:56.288Z,1.81
2023-01-18T00:56:42.864Z,1.83
2023-01-18T00:59:29.729Z,1.84
2023-01-18T01:02:16.911Z,1.86
2023-01-18T01:05:22.000Z,1.87
2023-01-18T01:08:17.342Z,1.84
2023-01-18T01:11:10.122Z,1.85
2023-01-18T01:14:15.331Z,1.87
2023-01-18T01:17:21.056Z,1.91
2023-01-18T01:20:27.899Z,1.92
2023-01-18T01:23:42.542Z,1.94
2023-01-18T01:26:28.966Z,1.94
2023-01-18T01:29:15.990Z,1.99
2023-01-18T01:32:03.465Z,2.05
2023-01-18T01:34:50.062Z,2.08
2023-01-18T01:37:36.663Z,2.11
2023-01-18T01:40:24.339Z,2.13
2023-01-18T01:43:13.356Z,2.17
2023-01-18T01:45:59.965Z,2.21
2023-01-18T01:48:48.599Z,2.23
2023-01-18T01:51:39.332Z,2.26
2023-01-18T01:54:34.505Z,2.28
2023-01-18T01:57:25.605Z,2.31
2023-01-18T02:00:15.954Z,2.33
2023-01-18T02:03:08.698Z,2.34
2023-01-18T02:12:12.630Z,2.24
2023-01-18T02:14:59.957Z,2.16
2023-01-18T02:17:49.759Z,2.24
2023-01-18T02:21:14.196Z,2.35
2023-01-18T02:24:13.132Z,2.38
2023-01-18T02:27:11.621Z,2.41
2023-01-18T02:29:58.188Z,2.39
2023-01-18T02:33:03.445Z,2.46
2023-01-18T02:35:52.636Z,2.46
2023-01-18T02:38:44.854Z,2.49
2023-01-18T02:42:04.251Z,2.46
2023-01-18T02:45:09.789Z,2.44
2023-01-18T02:47:56.059Z,2.48
2023-01-18T02:50:42.753Z,2.53
2023-01-18T02:53:30.666Z,2.56
2023-01-18T02:56:19.463Z,2.56
2023-01-18T02:59:13.790Z,2.55
2023-01-18T03:02:06.846Z,2.57
2023-01-18T03:04:55.261Z,2.59
2023-01-18T03:07:52.993Z,2.58
2023-01-18T03:10:51.120Z,2.58
2023-01-18T03:13:59.590Z,2.59
2023-01-18T03:17:22.934Z,2.61
2023-01-18T03:20:11.591Z,2.59
2023-01-18T03:23:25.484Z,2.68
2023-01-18T03:26:16.473Z,2.67
2023-01-18T03:29:23.241Z,2.71
2023-01-18T03:32:32.039Z,2.72
2023-01-18T03:35:27.332Z,2.72
2023-01-18T03:38:15.519Z,2.75
2023-01-18T03:41:03.043Z,2.76
2023-01-18T03:43:52.196Z,2.81
2023-01-18T03:46:40.546Z,2.83
2023-01-18T03:49:30.153Z,2.90
2023-01-18T03:52:18.559Z,2.89
2023-01-18T03:55:39.262Z,2.89
2023-01-18T03:58:36.263Z,2.85
2023-01-18T04:01:23.501Z,2.80
2023-01-18T04:04:10.049Z,2.84
2023-01-18T04:06:58.116Z,2.86
2023-01-18T04:09:44.736Z,2.78
2023-01-18T04:12:31.619Z,2.80
2023-01-18T04:15:18.424Z,2.77
2023-01-18T04:18:05.706Z,2.78
2023-01-18T04:20:56.382Z,2.81
2023-01-18T04:23:42.652Z,2.83
2023-01-18T04:26:30.012Z,2.87
2023-01-18T04:29:17.437Z,2.93
2023-01-18T04:32:05.596Z,2.93
2023-01-18T04:34:53.614Z,2.92
2023-01-18T04:37:40.182Z,2.95
2023-01-18T04:40:27.962Z,2.98
2023-01-18T04:43:14.852Z,3.01
2023-01-18T04:46:01.546Z,3.03
2023-01-18T04:48:52.464Z,3.03
2023-01-18T04:51:39.271Z,3.04
2023-01-18T04:54:26.394Z,3.08
2023-01-18T04:57:12.625Z,3.10
2023-01-18T05:00:00.545Z,3.12
2023-01-18T05:02:46.972Z,3.18
2023-01-18T05:05:33.693Z,3.22
2023-01-18T05:08:20.416Z,3.24
2023-01-18T05:11:09.744Z,3.23
2023-01-18T05:13:56.318Z,3.22
2023-01-18T05:16:42.832Z,3.19
2023-01-18T05:19:30.774Z,3.22
2023-01-18T05:22:17.330Z,3.19
2023-01-18T05:25:05.677Z,3.23
2023-01-18T05:27:52.322Z,3.26
2023-01-18T05:30:41.831Z,3.23
2023-01-18T05:33:28.825Z,3.24
2023-01-18T05:36:15.787Z,3.16
2023-01-18T05:39:06.531Z,3.15
2023-01-18T05:41:52.891Z,3.09
2023-01-18T05:44:39.771Z,3.08
2023-01-18T05:47:28.773Z,3.06
2023-01-18T05:50:16.108Z,3.06
2023-01-18T05:53:03.310Z,3.09
2023-01-18T05:56:01.425Z,2.98
2023-01-18T05:58:48.018Z,3.01
2023-01-18T06:01:34.813Z,2.97
2023-01-18T06:04:22.178Z,2.97
2023-01-18T06:07:09.366Z,2.99
2023-01-18T06:09:56.005Z,3.02
2023-01-18T06:12:43.559Z,2.96
2023-01-18T06:15:30.069Z,2.93
2023-01-18T06:18:16.776Z,2.89
2023-01-18T06:21:04.096Z,2.91
2023-01-18T06:23:50.660Z,2.93
2023-01-18T06:26:37.274Z,2.94
2023-01-18T06:29:23.964Z,2.93
2023-01-18T06:32:10.766Z,2.94
2023-01-18T06:34:57.315Z,2.93
2023-01-18T06:37:46.167Z,2.88
2023-01-18T06:40:32.799Z,2.88
2023-01-18T06:43:20.685Z,2.87
2023-01-18T06:46:24.883Z,2.84
2023-01-18T06:49:14.638Z,2.78
2023-01-18T06:52:01.633Z,2.81
2023-01-18T06:54:48.023Z,2.87
2023-01-18T06:57:34.710Z,2.91
2023-01-18T07:00:22.072Z,2.89
2023-01-18T07:03:10.706Z,2.92
2023-01-18T07:05:58.827Z,2.92
2023-01-18T07:08:49.074Z,2.98
2023-01-18T07:11:36.938Z,2.99
2023-01-18T07:14:23.200Z,3.04
2023-01-18T07:17:09.812Z,3.07
2023-01-18T07:19:56.351Z,3.08
2023-01-18T07:22:45.437Z,3.09
2023-01-18T07:25:32.492Z,3.11
2023-01-18T07:28:19.403Z,3.18
2023-01-18T07:31:08.145Z,3.24
2023-01-18T07:33:54.982Z,3.30
2023-01-18T07:36:44.100Z,3.29
2023-01-18T07:39:30.814Z,3.33
2023-01-18T07:42:17.225Z,3.31
2023-01-18T07:45:04.496Z,3.25
2023-01-18T07:47:55.961Z,3.29
2023-01-18T07:50:42.556Z,3.29
2023-01-18T07:53:31.842Z,3.32
2023-01-18T07:56:19.927Z,3.35
2023-01-18T07:59:06.688Z,3.37
2023-01-18T08:01:53.551Z,3.37
2023-01-18T08:04:40.555Z,3.37
2023-01-18T08:07:27.092Z,3.32
2023-01-18T08:10:27.770Z,3.38
2023-01-18T08:13:14.538Z,3.39
2023-01-18T08:16:03.523Z,3.35
2023-01-18T08:18:50.769Z,3.34
2023-01-18T08:21:37.229Z,3.38
2023-01-18T08:24:25.121Z,3.49
2023-01-18T08:27:11.814Z,3.53
2023-01-18T08:29:58.703Z,3.58
2023-01-18T08:32:45.368Z,3.61
2023-01-18T08:35:44.623Z,3.65
2023-01-18T08:38:31.284Z,3.55
2023-01-18T08:41:19.270Z,3.60
2023-01-18T08:44:07.150Z,3.66
2023-01-18T08:46:53.595Z,3.58
2023-01-18T08:49:40.479Z,3.54
2023-01-18T08:52:27.506Z,3.64
2023-01-18T08:55:13.996Z,3.64
2023-01-18T08:58:00.812Z,3.65
2023-01-18T09:00:50.914Z,3.62
2023-01-18T09:03:38.157Z,3.62
2023-01-18T09:06:25.382Z,3.68
2023-01-18T09:09:13.069Z,3.72
2023-01-18T09:11:59.672Z,3.69
2023-01-18T09:14:46.015Z,3.64
2023-01-18T09:17:33.783Z,3.65
2023-01-18T09:20:20.511Z,3.64
2023-01-18T09:23:09.087Z,3.64
2023-01-18T09:26:13.918Z,3.63
2023-01-18T09:29:00.555Z,3.65
2023-01-18T09:31:49.138Z,3.73
2023-01-18T09:34:36.166Z,3.70
2023-01-18T09:37:23.112Z,3.73
2023-01-18T09:40:17.838Z,3.79
2023-01-18T09:43:28.938Z,3.77
2023-01-18T09:46:21.024Z,3.79
2023-01-18T09:49:18.556Z,3.80
2023-01-18T09:52:22.610Z,3.76
2023-01-18T09:55:12.101Z,3.66
2023-01-18T09:58:19.567Z,3.62
2023-01-18T10:01:14.545Z,3.66
2023-01-18T10:04:09.046Z,3.64
2023-01-18T10:07:00.250Z,3.68
2023-01-18T10:10:00.564Z,3.72
2023-01-18T10:13:06.928Z,3.74
2023-01-18T10:15:54.032Z,3.70
2023-01-18T10:18:48.450Z,3.76
2023-01-18T10:21:52.828Z,3.80
2023-01-18T10:24:50.185Z,3.78
2023-01-18T10:27:48.798Z,3.82
2023-01-18T10:30:36.719Z,3.87
2023-01-18T10:33:30.135Z,3.83
2023-01-18T10:36:22.372Z,3.77
2023-01-18T10:39:40.463Z,3.77
2023-01-18T10:42:34.195Z,3.77
2023-01-18T10:45:26.970Z,3.84
2023-01-18T10:48:29.021Z,3.81
2023-01-18T10:51:37.093Z,3.79
2023-01-18T10:54:27.007Z,3.79
2023-01-18T10:57:20.507Z,3.81
2023-01-18T11:00:21.537Z,3.77
2023-01-18T11:03:14.867Z,3.75
2023-01-18T11:06:06.222Z,3.74
2023-01-18T11:08:56.826Z,3.77
2023-01-18T11:12:02.742Z,3.81
2023-01-18T11:14:50.499Z,3.83
2023-01-18T11:18:04.954Z,3.85
2023-01-18T11:21:00.069Z,3.77
2023-01-18T11:23:55.503Z,3.80
2023-01-18T11:27:03.828Z,3.77
2023-01-18T11:29:54.835Z,3.74
2023-01-18T11:32:42.317Z,3.81
2023-01-18T11:35:36.606Z,3.87
2023-01-18T11:38:28.793Z,3.90
2023-01-18T11:41:21.243Z,3.94
2023-01-18T11:44:25.309Z,3.97
2023-01-18T11:47:21.886Z,3.96
2023-01-18T11:50:23.810Z,3.90
2023-01-18T11:53:20.544Z,3.87
2023-01-18T11:56:36.486Z,3.88
2023-01-18T12:00:15.143Z,3.75
2023-01-18T12:03:31.455Z,3.69
2023-01-18T12:06:35.846Z,3.70
2023-01-18T12:09:28.945Z,3.71
2023-01-18T12:12:29.431Z,3.71
2023-01-18T12:15:29.751Z,3.73
2023-01-18T12:18:24.561Z,3.79
2023-01-18T12:21:11.636Z,3.83
2023-01-18T12:24:09.159Z,3.88
2023-01-18T12:27:04.946Z,3.88
2023-01-18T12:30:06.645Z,3.88
2023-01-18T12:33:04.034Z,3.88
2023-01-18T12:36:08.267Z,3.86
2023-01-18T12:38:56.955Z,3.83
2023-01-18T12:41:55.674Z,3.87
2023-01-18T12:44:52.033Z,3.90
2023-01-18T12:47:42.505Z,4.02
2023-01-18T12:50:34.239Z,4.07
2023-01-18T12:53:44.649Z,4.04
2023-01-18T12:56:45.994Z,3.89
2023-01-18T12:59:41.076Z,3.74
2023-01-18T13:02:36.731Z,3.64
2023-01-18T13:05:35.199Z,3.68
2023-01-18T13:08:27.523Z,3.71
2023-01-18T13:11:19.841Z,3.68
2023-01-18T13:14:18.360Z,3.69
2023-01-18T13:17:11.813Z,3.66
2023-01-18T13:20:05.247Z,3.66
2023-01-18T13:23:10.974Z,3.60
2023-01-18T13:26:29.832Z,3.62
2023-01-18T13:29:30.451Z,3.60
2023-01-18T13:32:49.893Z,3.54
2023-01-18T13:35:38.357Z,3.51
2023-01-18T13:38:40.745Z,3.53
2023-01-18T13:41:30.320Z,3.55
2023-01-18T13:44:32.559Z,3.58
2023-01-18T13:47:46.959Z,3.49
2023-01-18T13:50:34.942Z,3.39
2023-01-18T13:53:23.297Z,3.40
2023-01-18T13:56:20.670Z,3.47
2023-01-18T13:59:13.312Z,3.54
2023-01-18T14:02:27.373Z,3.47
2023-01-18T14:05:31.894Z,3.33
2023-01-18T14:08:23.586Z,3.28
2023-01-18T14:11:23.776Z,3.25
2023-01-18T14:14:11.820Z,3.26
2023-01-18T14:16:59.884Z,3.29
2023-01-18T14:19:50.107Z,3.13
2023-01-18T14:22:52.089Z,2.98
2023-01-18T14:25:57.390Z,2.97
2023-01-18T14:28:59.687Z,3.00
2023-01-18T14:31:57.036Z,3.03
2023-01-18T14:34:44.805Z,3.00
2023-01-18T14:37:35.776Z,3.04
2023-01-18T14:40:32.258Z,3.00
2023-01-18T14:43:35.087Z,2.98
2023-01-18T14:46:26.706Z,2.91
2023-01-18T14:49:18.600Z,2.90
2023-01-18T14:52:11.587Z,2.90
2023-01-18T14:54:58.761Z,2.93
2023-01-18T14:57:53.129Z,2.98
2023-01-18T15:00:53.616Z,3.00
2023-01-18T15:03:40.292Z,3.00
2023-01-18T15:06:32.935Z,2.94
2023-01-18T15:09:21.844Z,2.92
2023-01-18T15:12:14.138Z,2.93
2023-01-18T15:15:08.693Z,2.93
2023-01-18T15:18:17.524Z,2.95
2023-01-18T15:21:10.601Z,2.94
2023-01-18T15:24:02.086Z,2.93
2023-01-18T15:26:54.757Z,2.84
2023-01-18T15:29:46.221Z,2.79
2023-01-18T15:32:34.549Z,2.70
2023-01-18T15:35:24.137Z,2.61
2023-01-18T15:38:11.600Z,2.66
2023-01-18T15:41:14.735Z,2.64
2023-01-18T15:44:01.772Z,2.61
2023-01-18T15:46:49.269Z,2.61
2023-01-18T15:49:35.661Z,2.63
2023-01-18T15:52:50.254Z,2.63
2023-01-18T15:55:45.831Z,2.62
2023-01-18T15:58:42.723Z,2.62
2023-01-18T16:01:36.412Z,2.62
2023-01-18T16:04:23.800Z,2.68
2023-01-18T16:07:37.729Z,2.63
2023-01-18T16:10:30.437Z,2.66
2023-01-18T16:13:32.064Z,2.59
2023-01-18T16:16:21.985Z,2.59
2023-01-18T16:19:23.379Z,2.45
2023-01-18T16:22:18.862Z,2.45
2023-01-18T16:25:11.211Z,2.34
2023-01-18T16:28:00.349Z,2.44
2023-01-18T16:30:53.008Z,2.50
2023-01-18T16:33:39.773Z,2.50
2023-01-18T16:36:29.729Z,2.43
2023-01-18T16:39:20.036Z,2.49
2023-01-18T16:42:09.395Z,2.47
2023-01-18T16:44:55.895Z,2.44
2023-01-18T16:47:42.863Z,2.42
2023-01-18T16:50:29.563Z,2.41
2023-01-18T16:53:17.518Z,2.46
2023-01-18T16:56:04.067Z,2.42
2023-01-18T16:58:51.379Z,2.43
2023-01-18T17:01:38.277Z,2.43
2023-01-18T17:04:26.781Z,2.46
2023-01-18T17:07:14.199Z,2.47
2023-01-18T17:10:00.796Z,2.49
2023-01-18T17:12:47.471Z,2.45
2023-01-18T17:15:38.402Z,2.43
2023-01-18T17:18:27.001Z,2.49
2023-01-18T17:21:14.070Z,2.48
2023-01-18T17:24:00.835Z,2.45
2023-01-18T17:26:48.133Z,2.50
2023-01-18T17:29:35.797Z,2.54
2023-01-18T17:32:22.501Z,2.62
2023-01-18T17:35:10.857Z,2.50
2023-01-18T17:38:05.159Z,2.53
2023-01-18T17:40:58.123Z,2.49
2023-01-18T17:43:45.268Z,2.45
2023-01-18T17:46:34.575Z,2.48
2023-01-18T17:49:21.230Z,2.47
2023-01-18T17:52:08.373Z,2.40
2023-01-18T17:54:54.735Z,2.39
2023-01-18T17:57:41.363Z,2.42
2023-01-18T18:00:28.242Z,2.34
2023-01-18T18:03:15.019Z,2.31
2023-01-18T18:06:02.459Z,2.35
2023-01-18T18:08:49.183Z,2.29
2023-01-18T18:11:38.757Z,2.38
2023-01-18T18:14:43.183Z,2.34
2023-01-18T18:17:31.348Z,2.41
2023-01-18T18:20:18.104Z,2.41
2023-01-18T18:23:05.210Z,2.38
2023-01-18T18:25:52.003Z,2.50
2023-01-18T18:28:38.437Z,2.46
2023-01-18T18:31:25.168Z,2.42
2023-01-18T18:34:12.038Z,2.41
2023-01-18T18:37:00.227Z,2.45
2023-01-18T18:39:46.715Z,2.47
2023-01-18T18:42:33.438Z,2.40
2023-01-18T18:45:20.213Z,2.36
2023-01-18T18:48:06.896Z,2.36
2023-01-18T18:50:53.988Z,2.43
2023-01-18T18:53:40.719Z,2.41
2023-01-18T18:56:28.018Z,2.38
2023-01-18T18:59:14.878Z,2.33
2023-01-18T19:02:01.663Z,2.31
2023-01-18T19:04:48.504Z,2.39
2023-01-18T19:07:35.947Z,2.43
2023-01-18T19:10:27.235Z,2.33
2023-01-18T19:13:14.011Z,2.30
2023-01-18T19:16:00.826Z,2.24
2023-01-18T19:18:47.593Z,2.26
2023-01-18T19:21:38.764Z,2.32
2023-01-18T19:24:26.003Z,2.29
2023-01-18T19:27:12.423Z,2.35
2023-01-18T19:29:58.830Z,2.29
2023-01-18T19:32:51.054Z,2.28
2023-01-18T19:35:41.612Z,2.30
2023-01-18T19:38:31.563Z,2.38
2023-01-18T19:41:18.125Z,2.41
2023-01-18T19:44:05.179Z,2.35
2023-01-18T19:46:51.694Z,2.43
2023-01-18T19:49:40.715Z,2.45
2023-01-18T19:52:27.330Z,2.48
2023-01-18T19:55:21.557Z,2.44
2023-01-18T19:58:08.551Z,2.51
2023-01-18T20:00:55.380Z,2.48
2023-01-18T20:03:46.152Z,2.53
2023-01-18T20:06:32.886Z,2.49
2023-01-18T20:09:35.097Z,2.54
2023-01-18T20:12:31.424Z,2.45
2023-01-18T20:15:18.892Z,2.53
2023-01-18T20:18:07.242Z,2.57
2023-01-18T20:20:53.587Z,2.54
2023-01-18T20:23:42.969Z,2.48
2023-01-18T20:26:36.740Z,2.56
2023-01-18T20:29:24.497Z,2.58
2023-01-18T20:32:19.569Z,2.57
2023-01-18T20:35:06.560Z,2.58
2023-01-18T20:37:54.470Z,2.63
2023-01-18T20:40:43.126Z,2.68
2023-01-18T20:43:29.796Z,2.68
2023-01-18T20:46:16.452Z,2.72
2023-01-18T20:49:03.648Z,2.72
2023-01-18T20:51:50.259Z,2.75
2023-01-18T20:54:37.814Z,2.80
2023-01-18T20:57:27.155Z,2.83
2023-01-18T21:00:13.969Z,2.82
2023-01-18T21:03:00.958Z,2.82
2023-01-18T21:05:47.964Z,2.86
2023-01-18T21:08:34.540Z,2.89
2023-01-18T21:11:23.154Z,2.87
2023-01-18T21:14:09.814Z,2.88
2023-01-18T21:16:56.786Z,2.93
2023-01-18T21:19:53.420Z,2.97
2023-01-18T21:22:39.761Z,2.88
2023-01-18T21:25:27.797Z,2.95
2023-01-18T21:28:14.436Z,3.02
2023-01-18T21:31:01.460Z,3.01
2023-01-18T21:33:49.771Z,2.97
2023-01-18T21:36:37.012Z,2.94
2023-01-18T21:39:26.394Z,2.99
2023-01-18T21:42:31.539Z,2.94
2023-01-18T21:45:36.672Z,2.96
2023-01-18T21:48:28.404Z,3.01
2023-01-18T21:51:36.183Z,2.99
2023-01-18T21:54:22.783Z,3.05
2023-01-18T21:57:12.584Z,3.09
2023-01-18T21:59:59.273Z,3.16
2023-01-18T22:02:46.378Z,3.16
2023-01-18T22:05:32.813Z,3.11
2023-01-18T22:08:19.475Z,3.08
2023-01-18T22:11:06.287Z,3.08
2023-01-18T22:13:52.854Z,3.04
2023-01-18T22:16:40.250Z,3.09
2023-01-18T22:19:26.680Z,3.14
2023-01-18T22:22:15.092Z,3.17
2023-01-18T22:25:02.368Z,3.11
2023-01-18T22:27:49.458Z,3.13
2023-01-18T22:30:36.325Z,3.13
2023-01-18T22:33:23.060Z,3.15
2023-01-18T22:36:10.176Z,3.19
2023-01-18T22:38:57.455Z,3.25
2023-01-18T22:41:43.631Z,3.31
2023-01-18T22:44:30.340Z,3.28
2023-01-18T22:47:18.576Z,3.28
2023-01-18T22:50:05.565Z,3.29
2023-01-18T22:52:52.157Z,3.28
2023-01-18T22:55:39.147Z,3.21
2023-01-18T22:58:25.558Z,3.27
2023-01-18T23:01:32.105Z,3.29
2023-01-18T23:04:18.957Z,3.26
2023-01-18T23:07:10.353Z,3.26
2023-01-18T23:09:57.149Z,3.24
2023-01-18T23:12:43.855Z,3.20
2023-01-18T23:15:49.347Z,3.23
2023-01-18T23:18:35.985Z,3.26
2023-01-18T23:21:22.623Z,3.27
2023-01-18T23:24:09.369Z,3.22
2023-01-18T23:26:56.047Z,3.24
2023-01-18T23:29:42.899Z,3.21
2023-01-18T23:32:32.423Z,3.22
2023-01-18T23:35:18.743Z,3.25
2023-01-18T23:38:06.471Z,3.25
2023-01-18T23:41:14.355Z,3.16
2023-01-18T23:44:19.667Z,3.19
2023-01-18T23:47:24.695Z,3.23
2023-01-18T23:50:30.380Z,3.20
2023-01-18T23:53:35.892Z,3.26
2023-01-18T23:56:22.816Z,3.26
2023-01-18T23:59:09.237Z,3.18
